createdAt,value
2023-05-08T00:01:25.897Z,7.73
2023-05-08T00:03:53.726Z,7.27
2023-05-08T00:06:21.860Z,7.03
2023-05-08T00:08:49.523Z,7.93
2023-05-08T00:11:17.307Z,8.17
2023-05-08T00:13:46.526Z,7.17
2023-05-08T00:16:14.430Z,7.37
2023-05-08T00:18:42.164Z,8.27
2023-05-08T00:21:14.948Z,8.57
2023-05-08T00:23:42.611Z,7.60
2023-05-08T00:26:15.540Z,7.87
2023-05-08T00:28:43.180Z,8.13
2023-05-08T00:31:12.364Z,7.73
2023-05-08T00:33:41.756Z,8.20
2023-05-08T00:36:10.150Z,7.90
2023-05-08T00:38:38.559Z,6.97
2023-05-08T00:41:08.341Z,7.13
2023-05-08T00:43:37.593Z,8.53
2023-05-08T00:46:05.428Z,7.87
2023-05-08T00:48:35.242Z,7.40
2023-05-08T00:51:04.537Z,7.97
2023-05-08T00:53:32.578Z,7.57
2023-05-08T00:56:00.203Z,7.73
2023-05-08T00:58:38.612Z,7.30
2023-05-08T01:01:07.291Z,8.20
2023-05-08T01:03:36.943Z,7.13
2023-05-08T01:06:05.142Z,6.00
2023-05-08T01:08:32.833Z,7.30
2023-05-08T01:11:08.743Z,6.10
2023-05-08T01:13:43.439Z,7.13
2023-05-08T01:16:13.345Z,7.87
2023-05-08T01:18:49.144Z,7.20
2023-05-08T01:21:21.676Z,7.30
2023-05-08T01:24:18.990Z,7.77
2023-05-08T01:27:03.720Z,7.93
2023-05-08T01:30:00.785Z,7.07
2023-05-08T01:32:30.940Z,7.47
2023-05-08T01:35:01.560Z,7.57
2023-05-08T01:37:31.923Z,7.07
2023-05-08T01:40:06.243Z,6.20
2023-05-08T01:42:39.262Z,7.00
2023-05-08T01:45:11.799Z,6.97
2023-05-08T01:47:40.783Z,6.70
2023-05-08T01:50:11.649Z,7.33
2023-05-08T01:52:43.986Z,6.70
2023-05-08T01:55:13.411Z,7.13
2023-05-08T01:57:42.655Z,6.97
2023-05-08T02:00:14.973Z,6.03
2023-05-08T02:02:44.136Z,7.57
2023-05-08T02:05:11.955Z,6.97
2023-05-08T02:07:39.851Z,7.50
2023-05-08T02:10:08.749Z,7.07
2023-05-08T02:12:36.932Z,8.83
2023-05-08T02:15:05.222Z,7.30
2023-05-08T02:17:35.387Z,6.50
2023-05-08T02:20:04.891Z,6.47
2023-05-08T02:22:33.312Z,7.50
2023-05-08T02:25:00.872Z,6.20
2023-05-08T02:27:29.080Z,7.03
2023-05-08T02:29:56.831Z,7.50
2023-05-08T02:32:26.112Z,6.90
2023-05-08T02:35:02.375Z,7.47
2023-05-08T02:37:32.388Z,6.60
2023-05-08T02:40:00.050Z,6.97
2023-05-08T02:42:27.666Z,7.47
2023-05-08T02:44:55.258Z,6.87
2023-05-08T02:47:24.758Z,7.30
2023-05-08T02:49:54.369Z,7.97
2023-05-08T02:52:25.183Z,6.53
2023-05-08T02:54:58.448Z,8.33
2023-05-08T02:57:32.161Z,7.20
2023-05-08T03:00:01.949Z,7.10
2023-05-08T03:02:33.225Z,7.73
2023-05-08T03:05:16.319Z,8.13
2023-05-08T03:07:45.077Z,7.13
2023-05-08T03:10:16.684Z,8.70
2023-05-08T03:12:46.755Z,7.87
2023-05-08T03:15:17.294Z,7.13
2023-05-08T03:17:45.139Z,7.27
2023-05-08T03:20:13.855Z,7.43
2023-05-08T03:22:41.906Z,6.90
2023-05-08T03:25:10.759Z,7.30
2023-05-08T03:27:39.824Z,8.23
2023-05-08T03:30:09.431Z,7.90
2023-05-08T03:32:37.707Z,7.97
2023-05-08T03:35:06.099Z,7.90
2023-05-08T03:37:35.174Z,8.63
2023-05-08T03:40:03.652Z,8.37
2023-05-08T03:42:31.586Z,8.40
2023-05-08T03:45:00.692Z,9.03
2023-05-08T03:47:28.589Z,8.63
2023-05-08T03:49:56.375Z,7.27
2023-05-08T03:52:24.896Z,7.63
2023-05-08T03:54:52.665Z,7.27
2023-05-08T03:57:20.330Z,7.97
2023-05-08T03:59:50.874Z,7.93
2023-05-08T04:02:23.886Z,8.10
2023-05-08T04:04:53.988Z,8.33
2023-05-08T04:07:25.852Z,7.93
2023-05-08T04:09:59.426Z,9.80
2023-05-08T04:12:30.577Z,8.90
2023-05-08T04:15:02.778Z,10.47
2023-05-08T04:17:36.005Z,9.13
2023-05-08T04:20:05.288Z,9.77
2023-05-08T04:22:33.686Z,10.17
2023-05-08T04:25:04.240Z,9.27
2023-05-08T04:27:31.927Z,9.33
2023-05-08T04:29:59.633Z,9.27
2023-05-08T04:32:27.457Z,9.50
2023-05-08T04:34:58.085Z,9.60
2023-05-08T04:37:26.900Z,9.20
2023-05-08T04:39:54.675Z,12.57
2023-05-08T04:42:22.378Z,9.20
2023-05-08T04:44:52.976Z,9.37
2023-05-08T04:47:20.953Z,10.50
2023-05-08T04:49:48.747Z,9.73
2023-05-08T04:52:17.944Z,9.63
2023-05-08T04:54:45.750Z,9.10
2023-05-08T04:57:13.467Z,9.27
2023-05-08T04:59:41.204Z,9.47
2023-05-08T05:02:09.293Z,8.93
2023-05-08T05:04:37.233Z,8.73
2023-05-08T05:07:05.095Z,9.13
2023-05-08T05:09:36.877Z,9.43
2023-05-08T05:12:04.618Z,9.23
2023-05-08T05:14:32.400Z,8.83
2023-05-08T05:17:00.046Z,10.33
2023-05-08T05:19:27.941Z,9.10
2023-05-08T05:21:55.740Z,9.50
2023-05-08T05:24:23.403Z,9.93
2023-05-08T05:26:52.526Z,9.50
2023-05-08T05:29:20.265Z,9.47
2023-05-08T05:31:47.954Z,9.57
2023-05-08T05:34:15.623Z,10.13
2023-05-08T05:36:43.226Z,9.97
2023-05-08T05:39:10.892Z,10.03
2023-05-08T05:41:38.522Z,10.30
2023-05-08T05:44:07.818Z,10.20
2023-05-08T05:46:35.557Z,10.50
2023-05-08T05:49:03.200Z,11.37
2023-05-08T05:51:30.817Z,10.60
2023-05-08T05:53:58.682Z,11.43
2023-05-08T05:56:26.464Z,11.10
2023-05-08T05:58:54.254Z,10.93
2023-05-08T06:01:24.911Z,9.93
2023-05-08T06:03:53.061Z,11.10
2023-05-08T06:06:20.953Z,10.33
2023-05-08T06:08:48.761Z,12.87
2023-05-08T06:11:16.613Z,12.20
2023-05-08T06:13:44.783Z,10.90
2023-05-08T06:16:12.568Z,10.87
2023-05-08T06:18:41.675Z,10.83
2023-05-08T06:21:09.507Z,10.77
2023-05-08T06:23:37.552Z,10.97
2023-05-08T06:26:37.017Z,15.23
2023-05-08T06:29:04.598Z,11.23
2023-05-08T06:31:32.574Z,10.50
2023-05-08T06:34:11.651Z,11.60
2023-05-08T06:36:39.214Z,11.10
2023-05-08T06:39:07.350Z,10.97
2023-05-08T06:41:34.951Z,10.50
2023-05-08T06:44:02.686Z,11.00
2023-05-08T06:46:30.639Z,10.93
2023-05-08T06:48:58.364Z,11.97
2023-05-08T06:51:27.760Z,10.90
2023-05-08T06:53:55.398Z,11.73
2023-05-08T06:56:24.494Z,10.13
2023-05-08T06:59:01.010Z,10.47
2023-05-08T07:01:37.827Z,11.27
2023-05-08T07:04:05.946Z,10.07
2023-05-08T07:06:35.214Z,10.90
2023-05-08T07:09:02.950Z,10.27
2023-05-08T07:11:52.402Z,9.93
2023-05-08T07:14:34.351Z,10.50
2023-05-08T07:17:06.739Z,9.03
2023-05-08T07:19:51.303Z,9.40
2023-05-08T07:22:21.102Z,10.20
2023-05-08T07:24:48.854Z,9.70
2023-05-08T07:27:16.699Z,10.37
2023-05-08T07:29:44.384Z,10.27
2023-05-08T07:32:12.062Z,9.83
2023-05-08T07:34:40.739Z,8.80
2023-05-08T07:37:08.934Z,8.80
2023-05-08T07:39:39.970Z,8.53
2023-05-08T07:42:07.957Z,9.13
2023-05-08T07:44:43.747Z,9.00
2023-05-08T07:47:18.519Z,8.73
2023-05-08T07:49:47.262Z,8.60
2023-05-08T07:52:15.101Z,8.70
2023-05-08T07:54:44.227Z,8.63
2023-05-08T07:57:12.483Z,8.47
2023-05-08T07:59:40.198Z,7.93
2023-05-08T08:02:08.235Z,8.00
2023-05-08T08:04:36.025Z,7.27
2023-05-08T08:10:45.726Z,7.40
2023-05-08T08:13:13.761Z,7.33
2023-05-08T08:15:41.659Z,7.90
2023-05-08T08:18:09.550Z,7.90
2023-05-08T08:20:37.520Z,6.87
2023-05-08T08:23:06.002Z,6.93
2023-05-08T08:25:37.236Z,5.70
2023-05-08T08:28:06.312Z,5.87
2023-05-08T08:30:34.100Z,5.57
2023-05-08T08:33:02.285Z,6.40
2023-05-08T08:35:30.272Z,6.70
2023-05-08T08:37:58.053Z,7.03
2023-05-08T08:40:25.870Z,6.53
2023-05-08T08:42:53.589Z,7.23
2023-05-08T08:45:22.778Z,6.63
2023-05-08T08:47:50.564Z,8.43
2023-05-08T08:50:18.541Z,8.23
2023-05-08T08:52:49.501Z,9.07
2023-05-08T08:55:18.013Z,8.57
2023-05-08T08:57:49.211Z,8.30
2023-05-08T09:00:17.524Z,8.27
2023-05-08T09:02:46.598Z,8.13
2023-05-08T09:05:14.628Z,8.23
2023-05-08T09:07:43.820Z,7.50
2023-05-08T09:10:15.261Z,7.33
2023-05-08T09:12:44.916Z,7.23
2023-05-08T09:15:12.974Z,8.90
2023-05-08T09:17:40.826Z,8.30
2023-05-08T09:20:12.097Z,9.13
2023-05-08T09:22:40.113Z,7.43
2023-05-08T09:25:09.574Z,8.30
2023-05-08T09:27:37.410Z,7.70
2023-05-08T09:30:11.693Z,8.23
2023-05-08T09:32:41.584Z,7.85
2023-05-08T09:35:11.528Z,8.00
2023-05-08T09:37:42.022Z,7.00
2023-05-08T09:40:17.028Z,7.85
2023-05-08T09:42:44.802Z,7.03
2023-05-08T09:45:13.022Z,7.43
2023-05-08T09:47:48.569Z,5.88
2023-05-08T09:50:17.575Z,6.55
2023-05-08T09:52:47.850Z,6.10
2023-05-08T09:55:15.520Z,6.32
2023-05-08T09:57:53.820Z,5.95
2023-05-08T10:00:22.237Z,6.43
2023-05-08T10:02:55.774Z,6.18
2023-05-08T10:05:27.044Z,5.43
2023-05-08T10:07:56.815Z,5.30
2023-05-08T10:10:27.305Z,6.10
2023-05-08T10:12:55.511Z,5.07
2023-05-08T10:15:24.113Z,5.70
2023-05-08T10:17:54.947Z,5.70
2023-05-08T10:20:22.758Z,5.63
2023-05-08T10:22:52.752Z,6.10
2023-05-08T10:25:21.436Z,5.70
2023-05-08T10:28:00.084Z,6.88
2023-05-08T10:30:28.125Z,6.00
2023-05-08T10:32:56.078Z,6.32
2023-05-08T10:35:23.991Z,5.63
2023-05-08T10:37:53.116Z,6.22
2023-05-08T10:40:21.274Z,6.07
2023-05-08T10:42:48.895Z,6.03
2023-05-08T10:45:16.739Z,5.88
2023-05-08T10:47:52.945Z,6.18
2023-05-08T10:50:27.756Z,6.90
2023-05-08T10:53:00.191Z,5.90
2023-05-08T10:55:30.752Z,6.00
2023-05-08T10:58:11.026Z,8.57
2023-05-08T11:01:12.240Z,6.53
2023-05-08T11:03:41.311Z,5.97
2023-05-08T11:06:09.284Z,5.85
2023-05-08T11:08:47.672Z,5.20
2023-05-08T11:11:18.672Z,4.43
2023-05-08T11:13:48.478Z,4.93
2023-05-08T11:16:17.371Z,5.38
2023-05-08T11:19:18.262Z,4.93
2023-05-08T11:22:25.852Z,5.60
2023-05-08T11:24:59.581Z,6.03
2023-05-08T11:27:38.426Z,6.13
2023-05-08T11:30:36.943Z,6.07
2023-05-08T11:33:30.342Z,5.90
2023-05-08T11:35:58.553Z,6.20
2023-05-08T11:38:34.172Z,6.35
2023-05-08T11:41:25.479Z,5.97
2023-05-08T11:44:20.667Z,6.90
2023-05-08T11:46:52.195Z,6.25
2023-05-08T11:49:24.625Z,6.57
2023-05-08T11:51:55.272Z,7.13
2023-05-08T11:54:23.703Z,7.95
2023-05-08T11:56:56.791Z,7.88
2023-05-08T11:59:24.539Z,8.18
2023-05-08T12:04:25.350Z,7.10
2023-05-08T12:06:53.110Z,6.47
2023-05-08T12:09:21.458Z,6.30
2023-05-08T12:11:49.392Z,7.57
2023-05-08T12:14:18.853Z,9.18
2023-05-08T12:16:46.693Z,6.03
2023-05-08T12:19:14.901Z,6.05
2023-05-08T12:21:49.141Z,5.60
2023-05-08T12:24:18.826Z,5.50
2023-05-08T12:26:49.476Z,5.38
2023-05-08T12:29:21.324Z,6.40
2023-05-08T12:31:49.164Z,6.18
2023-05-08T12:34:17.228Z,6.53
2023-05-08T12:36:45.095Z,6.43
2023-05-08T12:39:13.476Z,6.80
2023-05-08T12:41:50.647Z,7.10
2023-05-08T12:44:25.101Z,6.82
2023-05-08T12:46:53.738Z,6.35
2023-05-08T12:49:49.180Z,6.97
2023-05-08T12:52:18.137Z,6.38
2023-05-08T12:54:51.038Z,6.57
2023-05-08T12:57:22.721Z,6.03
2023-05-08T12:59:52.381Z,6.45
2023-05-08T13:02:22.611Z,6.20
2023-05-08T13:04:54.509Z,5.28
2023-05-08T13:07:22.400Z,4.90
2023-05-08T13:10:00.949Z,4.47
2023-05-08T13:12:28.963Z,4.30
2023-05-08T13:14:58.046Z,4.20
2023-05-08T13:17:27.640Z,4.60
2023-05-08T13:19:55.587Z,4.47
2023-05-08T13:22:26.724Z,4.93
2023-05-08T13:24:54.854Z,5.57
2023-05-08T13:27:24.861Z,5.40
2023-05-08T13:29:56.613Z,4.85
2023-05-08T13:32:27.925Z,5.22
2023-05-08T13:35:00.760Z,5.05
2023-05-08T13:37:28.864Z,5.85
2023-05-08T13:39:57.200Z,6.25
2023-05-08T13:42:25.132Z,8.18
2023-05-08T13:44:53.040Z,6.70
2023-05-08T13:47:23.985Z,7.07
2023-05-08T13:49:53.336Z,6.60
2023-05-08T13:52:22.844Z,6.75
2023-05-08T13:54:50.706Z,4.95
2023-05-08T13:57:23.046Z,5.22
2023-05-08T13:59:50.869Z,5.38
2023-05-08T14:02:18.967Z,5.60
2023-05-08T14:04:49.445Z,5.63
2023-05-08T14:07:23.662Z,5.72
2023-05-08T14:09:51.632Z,6.60
2023-05-08T14:12:19.634Z,7.75
2023-05-08T14:16:05.041Z,8.27
2023-05-08T14:18:33.912Z,8.27
2023-05-08T14:21:02.134Z,7.30
2023-05-08T14:23:31.469Z,7.07
2023-05-08T14:25:59.516Z,6.38
2023-05-08T14:28:27.421Z,7.40
2023-05-08T14:30:55.114Z,7.25
2023-05-08T14:33:22.922Z,7.78
2023-05-08T14:35:50.819Z,8.25
2023-05-08T14:38:56.712Z,8.18
2023-05-08T14:41:24.454Z,7.85
2023-05-08T14:43:52.428Z,8.18
2023-05-08T14:46:21.323Z,8.52
2023-05-08T14:48:49.120Z,17.50
2023-05-08T14:51:16.814Z,9.18
2023-05-08T14:53:46.075Z,9.63
2023-05-08T14:56:16.324Z,9.45
2023-05-08T14:58:44.157Z,9.38
2023-05-08T15:01:11.944Z,8.90
2023-05-08T15:03:40.256Z,9.73
2023-05-08T15:06:08.365Z,10.13
2023-05-08T15:08:36.131Z,11.27
2023-05-08T15:11:05.355Z,10.55
2023-05-08T15:13:33.117Z,10.70
2023-05-08T15:16:00.881Z,10.73
2023-05-08T15:18:29.287Z,9.82
2023-05-08T15:20:57.947Z,10.77
2023-05-08T15:23:27.650Z,10.83
2023-05-08T15:25:55.656Z,10.82
2023-05-08T15:28:24.995Z,9.85
2023-05-08T15:30:52.815Z,10.13
2023-05-08T15:33:20.844Z,10.73
2023-05-08T15:35:48.790Z,11.13
2023-05-08T15:38:16.571Z,11.32
2023-05-08T15:40:45.635Z,10.30
2023-05-08T15:44:01.439Z,11.23
2023-05-08T15:47:19.569Z,10.88
2023-05-08T15:53:30.378Z,11.20
2023-05-08T15:56:26.109Z,12.15
2023-05-08T15:58:55.682Z,12.02
2023-05-08T16:01:23.633Z,12.95
2023-05-08T16:03:51.504Z,12.38
2023-05-08T16:06:19.435Z,13.48
2023-05-08T16:08:47.163Z,12.50
2023-05-08T16:11:36.607Z,13.23
2023-05-08T16:20:45.406Z,12.27
2023-05-08T16:23:14.489Z,12.30
2023-05-08T16:25:43.258Z,13.88
2023-05-08T16:28:10.915Z,12.32
2023-05-08T16:30:40.330Z,11.80
2023-05-08T16:33:08.572Z,12.65
2023-05-08T16:35:39.844Z,13.20
2023-05-08T16:38:08.489Z,37.00
2023-05-08T16:40:37.146Z,12.63
2023-05-08T16:43:05.910Z,12.40
2023-05-08T16:45:35.865Z,13.23
2023-05-08T16:50:32.845Z,12.70
2023-05-08T16:53:00.780Z,12.38
2023-05-08T16:55:28.550Z,12.40
2023-05-08T16:58:01.113Z,12.00
2023-05-08T17:00:28.797Z,12.52
2023-05-08T17:02:56.647Z,13.18
2023-05-08T17:05:24.612Z,12.55
2023-05-08T17:07:56.552Z,11.32
2023-05-08T17:10:24.349Z,11.48
2023-05-08T17:12:53.576Z,11.50
2023-05-08T17:15:21.831Z,7.80
2023-05-08T17:17:50.493Z,6.30
2023-05-08T17:20:21.869Z,6.20
2023-05-08T17:22:50.683Z,6.20
2023-05-08T17:25:22.749Z,5.50
2023-05-08T17:38:06.831Z,6.05
2023-05-08T17:40:36.738Z,5.45
2023-05-08T17:43:08.908Z,6.18
2023-05-08T17:48:20.964Z,6.50
2023-05-08T17:50:50.702Z,5.65
2023-05-08T17:53:20.011Z,5.25
2023-05-08T18:07:55.710Z,7.93
2023-05-08T18:18:18.880Z,6.67
2023-05-08T18:42:52.303Z,5.47
2023-05-08T18:45:26.625Z,6.23
2023-05-08T19:08:15.851Z,5.90
2023-05-08T19:38:51.174Z,6.13
2023-05-08T19:41:35.994Z,6.77
2023-05-08T19:44:03.774Z,6.80
2023-05-08T19:46:31.669Z,6.13
2023-05-08T19:49:00.155Z,6.77
2023-05-08T19:51:31.117Z,7.10
2023-05-08T19:54:03.748Z,7.63
2023-05-08T19:56:39.100Z,7.30
2023-05-08T19:59:06.938Z,7.50
2023-05-08T20:01:34.814Z,8.80
2023-05-08T20:04:02.820Z,8.00
2023-05-08T20:06:31.193Z,7.20
2023-05-08T20:08:58.906Z,7.27
2023-05-08T20:11:27.012Z,8.53
2023-05-08T20:13:56.046Z,8.20
2023-05-08T20:16:23.672Z,8.13
2023-05-08T20:18:53.471Z,8.37
2023-05-08T20:21:21.299Z,15.53
2023-05-08T20:23:49.044Z,8.23
2023-05-08T20:26:16.717Z,8.93
2023-05-08T20:28:44.975Z,9.37
2023-05-08T20:31:14.490Z,13.00
2023-05-08T20:33:42.315Z,8.50
2023-05-08T20:36:10.161Z,8.77
2023-05-08T20:38:38.334Z,8.50
2023-05-08T20:41:06.322Z,9.00
2023-05-08T20:43:34.545Z,8.10
2023-05-08T20:46:02.194Z,9.03
2023-05-08T20:48:31.694Z,8.27
2023-05-08T20:50:59.743Z,9.27
2023-05-08T20:53:28.480Z,8.67
2023-05-08T20:58:49.520Z,8.63
2023-05-08T21:01:23.395Z,8.90
2023-05-08T21:03:52.368Z,9.30
2023-05-08T21:06:35.929Z,9.13
2023-05-08T21:09:12.398Z,10.33
2023-05-08T21:11:40.152Z,8.97
2023-05-08T21:14:07.829Z,9.67
2023-05-08T21:16:36.072Z,8.70
2023-05-08T21:19:05.399Z,9.93
2023-05-08T21:21:33.079Z,9.30
2023-05-08T21:24:00.822Z,9.87
2023-05-08T21:26:28.462Z,10.00
2023-05-08T21:28:58.515Z,10.13
2023-05-08T21:31:26.177Z,9.93
2023-05-08T21:33:56.910Z,11.30
2023-05-08T21:36:25.882Z,10.67
2023-05-08T21:38:53.620Z,11.47
2023-05-08T21:41:21.635Z,10.23
2023-05-08T21:43:49.285Z,11.50
2023-05-08T21:46:16.938Z,11.10
2023-05-08T21:48:44.609Z,13.97
2023-05-08T21:51:12.421Z,11.23
2023-05-08T21:53:41.419Z,10.53
2023-05-08T21:56:09.024Z,11.60
2023-05-08T21:58:36.705Z,11.87
2023-05-08T22:01:04.394Z,12.60
2023-05-08T22:03:32.275Z,12.00
2023-05-08T22:06:00.398Z,10.67
2023-05-08T22:08:27.984Z,12.00
2023-05-08T22:10:57.115Z,11.50
2023-05-08T22:13:24.989Z,13.03
2023-05-08T22:15:54.008Z,12.53
2023-05-08T22:18:21.613Z,11.20
2023-05-08T22:20:49.251Z,12.33
2023-05-08T22:23:16.817Z,11.93
2023-05-08T22:25:44.469Z,12.37
2023-05-08T22:28:13.513Z,13.37
2023-05-08T22:30:41.221Z,12.80
2023-05-08T22:33:08.828Z,12.00
2023-05-08T22:35:37.268Z,11.80
2023-05-08T22:38:04.889Z,11.83
2023-05-08T22:40:32.602Z,15.57
2023-05-08T22:43:00.262Z,12.87
2023-05-08T22:45:29.308Z,12.43
2023-05-08T22:47:57.195Z,12.23
2023-05-08T22:53:08.013Z,13.30
2023-05-08T22:55:41.789Z,13.57
2023-05-08T22:58:09.488Z,14.27
2023-05-08T23:00:38.631Z,14.23
2023-05-08T23:03:06.593Z,13.97
2023-05-08T23:05:34.426Z,15.27
2023-05-08T23:08:02.365Z,13.77
2023-05-08T23:10:30.149Z,13.17
2023-05-08T23:12:57.823Z,13.83
2023-05-08T23:15:25.482Z,14.70
2023-05-08T23:17:54.740Z,13.47
2023-05-08T23:20:22.621Z,13.80
2023-05-08T23:22:50.406Z,15.20
2023-05-08T23:25:18.151Z,14.67
2023-05-08T23:27:45.911Z,15.63
2023-05-08T23:30:16.671Z,15.27
2023-05-08T23:32:44.488Z,16.17
2023-05-08T23:35:13.806Z,15.17
2023-05-08T23:37:41.832Z,17.37
2023-05-08T23:40:10.722Z,14.03
2023-05-08T23:42:39.755Z,16.47
2023-05-08T23:45:09.059Z,16.70
2023-05-08T23:47:36.922Z,16.03
2023-05-08T23:50:05.210Z,15.23
2023-05-08T23:52:34.296Z,16.97
2023-05-08T23:55:02.075Z,16.07
2023-05-08T23:57:30.028Z,17.67
2023-05-08T23:59:57.767Z,16.90
